Preview of NWS' New Version of Forecast
This preview is not operational and should not be used for support decisions.

Terminal Aerodrome Forecast (TAF)

Issued by National Weather Service (NWS)

                            
000
FTUS42 KKEY 201139 AAB
TAFMTH
TAF AMD
KMTH 201139Z 2012/2106 21010KT P6SM VCSH SCT020 SCT040 BKN250
      TEMPO 2013/2014 25022G35KT 2SM TSRA SCT015CB BKN040
     FM201400 32018G28KT 4SM SHRA BKN015 OVC025
     FM201800 33017G27KT P6SM BKN017 OVC030=